Airport View

Enter AWOS ICAO identifier for current METAR.

ex. KFNL

KTKI 210053Z 17018G23KT 10SM BKN070 BKN090 29/20 A2997 RMK AO2 SLP143 T02890200

21 Sep 2019 01:22

Frequency: 119.925

Phone: 972-548-8525

Other Area AWOS: KF46 - KADS - KDAL - KHQZ

TAF KDAL 202320Z 2100/2124 15015G25KT P6SM VCSH SCT060 BKN250 FM210100 16015KT P6SM BKN250 FM210700 16011KT P6SM BKN025 FM211000 17011KT P6SM BKN015 FM211600 17013KT P6SM SCT060